sensor_id;sensor_type;location;lat;lon;timestamp;temperature;humidity
70154;DHT22;57519;51.494;-2.626;2022-09-21T00:01:13;12.80;82.27
70154;DHT22;57519;51.494;-2.626;2022-09-21T00:03:40;12.82;82.48
70154;DHT22;57519;51.494;-2.626;2022-09-21T00:06:17;12.83;82.45
70154;DHT22;57519;51.494;-2.626;2022-09-21T00:08:44;12.83;82.45
70154;DHT22;57519;51.494;-2.626;2022-09-21T00:11:12;12.83;82.47
70154;DHT22;57519;51.494;-2.626;2022-09-21T00:13:38;12.88;82.42
70154;DHT22;57519;51.494;-2.626;2022-09-21T00:16:06;12.85;82.63
70154;DHT22;57519;51.494;-2.626;2022-09-21T00:18:32;12.86;82.63
70154;DHT22;57519;51.494;-2.626;2022-09-21T00:20:59;12.88;82.78
70154;DHT22;57519;51.494;-2.626;2022-09-21T00:23:25;12.89;82.78
70154;DHT22;57519;51.494;-2.626;2022-09-21T00:25:50;12.89;82.80
70154;DHT22;57519;51.494;-2.626;2022-09-21T00:28:16;12.92;82.69
70154;DHT22;57519;51.494;-2.626;2022-09-21T00:30:41;12.90;83.02
70154;DHT22;57519;51.494;-2.626;2022-09-21T00:33:07;12.99;82.52
70154;DHT22;57519;51.494;-2.626;2022-09-21T00:35:32;12.96;82.93
70154;DHT22;57519;51.494;-2.626;2022-09-21T00:38:02;12.97;83.03
70154;DHT22;57519;51.494;-2.626;2022-09-21T00:40:28;12.99;83.06
70154;DHT22;57519;51.494;-2.626;2022-09-21T00:43:08;12.96;83.06
70154;DHT22;57519;51.494;-2.626;2022-09-21T00:45:34;13.00;83.08
70154;DHT22;57519;51.494;-2.626;2022-09-21T00:48:00;12.99;83.31
70154;DHT22;57519;51.494;-2.626;2022-09-21T00:50:25;13.03;83.18
70154;DHT22;57519;51.494;-2.626;2022-09-21T00:52:54;13.03;83.14
70154;DHT22;57519;51.494;-2.626;2022-09-21T00:55:25;13.02;83.47
70154;DHT22;57519;51.494;-2.626;2022-09-21T00:58:03;13.06;83.33
70154;DHT22;57519;51.494;-2.626;2022-09-21T01:00:29;13.07;83.25
70154;DHT22;57519;51.494;-2.626;2022-09-21T01:02:55;13.07;83.33
70154;DHT22;57519;51.494;-2.626;2022-09-21T01:05:26;13.09;83.35
70154;DHT22;57519;51.494;-2.626;2022-09-21T01:07:54;13.11;83.42
70154;DHT22;57519;51.494;-2.626;2022-09-21T01:10:21;13.11;83.48
70154;DHT22;57519;51.494;-2.626;2022-09-21T01:15:58;13.13;83.47
70154;DHT22;57519;51.494;-2.626;2022-09-21T01:18:33;13.17;83.69
70154;DHT22;57519;51.494;-2.626;2022-09-21T01:27:03;13.24;83.47
70154;DHT22;57519;51.494;-2.626;2022-09-21T01:32:15;13.17;83.72
70154;DHT22;57519;51.494;-2.626;2022-09-21T01:34:56;13.17;83.66
70154;DHT22;57519;51.494;-2.626;2022-09-21T01:37:46;13.20;83.73
70154;DHT22;57519;51.494;-2.626;2022-09-21T01:40:26;13.18;83.83
70154;DHT22;57519;51.494;-2.626;2022-09-21T01:42:54;13.18;84.06
70154;DHT22;57519;51.494;-2.626;2022-09-21T01:45:29;13.18;84.23
70154;DHT22;57519;51.494;-2.626;2022-09-21T01:47:58;13.17;84.16
70154;DHT22;57519;51.494;-2.626;2022-09-21T01:50:25;13.20;84.12
70154;DHT22;57519;51.494;-2.626;2022-09-21T01:53:00;13.17;84.15
70154;DHT22;57519;51.494;-2.626;2022-09-21T01:55:30;13.17;84.17
70154;DHT22;57519;51.494;-2.626;2022-09-21T02:00:38;13.14;84.45
70154;DHT22;57519;51.494;-2.626;2022-09-21T02:03:15;13.16;84.56
70154;DHT22;57519;51.494;-2.626;2022-09-21T02:05:44;13.13;85.08
70154;DHT22;57519;51.494;-2.626;2022-09-21T02:08:10;13.14;85.05
70154;DHT22;57519;51.494;-2.626;2022-09-21T02:10:44;13.14;85.02
70154;DHT22;57519;51.494;-2.626;2022-09-21T02:13:11;13.14;84.97
70154;DHT22;57519;51.494;-2.626;2022-09-21T02:26:35;13.16;85.08
70154;DHT22;57519;51.494;-2.626;2022-09-21T02:29:13;13.17;85.18
70154;DHT22;57519;51.494;-2.626;2022-09-21T02:31:50;13.20;85.19
70154;DHT22;57519;51.494;-2.626;2022-09-21T02:34:49;13.18;85.24
70154;DHT22;57519;51.494;-2.626;2022-09-21T02:40:22;13.20;85.46
70154;DHT22;57519;51.494;-2.626;2022-09-21T02:42:55;13.20;85.69
70154;DHT22;57519;51.494;-2.626;2022-09-21T02:45:26;13.20;85.60
70154;DHT22;57519;51.494;-2.626;2022-09-21T02:48:02;13.20;85.51
70154;DHT22;57519;51.494;-2.626;2022-09-21T02:50:40;13.14;85.64
70154;DHT22;57519;51.494;-2.626;2022-09-21T02:53:09;13.20;85.71
70154;DHT22;57519;51.494;-2.626;2022-09-21T02:55:36;13.18;85.77
70154;DHT22;57519;51.494;-2.626;2022-09-21T02:58:05;13.18;85.67
70154;DHT22;57519;51.494;-2.626;2022-09-21T03:00:33;13.16;85.65
70154;DHT22;57519;51.494;-2.626;2022-09-21T03:02:59;13.17;85.62
70154;DHT22;57519;51.494;-2.626;2022-09-21T03:05:24;13.21;85.72
70154;DHT22;57519;51.494;-2.626;2022-09-21T03:07:50;13.16;85.98
70154;DHT22;57519;51.494;-2.626;2022-09-21T03:10:15;13.07;86.16
70154;DHT22;57519;51.494;-2.626;2022-09-21T03:12:42;13.06;86.23
70154;DHT22;57519;51.494;-2.626;2022-09-21T03:15:09;13.04;86.34
70154;DHT22;57519;51.494;-2.626;2022-09-21T03:17:34;13.02;86.30
70154;DHT22;57519;51.494;-2.626;2022-09-21T03:20:00;12.97;86.47
70154;DHT22;57519;51.494;-2.626;2022-09-21T03:22:25;12.97;86.54
70154;DHT22;57519;51.494;-2.626;2022-09-21T03:24:51;12.95;86.75
70154;DHT22;57519;51.494;-2.626;2022-09-21T03:27:21;12.96;86.95
70154;DHT22;57519;51.494;-2.626;2022-09-21T03:29:47;12.97;86.85
70154;DHT22;57519;51.494;-2.626;2022-09-21T03:32:13;12.93;86.71
70154;DHT22;57519;51.494;-2.626;2022-09-21T03:34:39;12.92;86.87
70154;DHT22;57519;51.494;-2.626;2022-09-21T03:37:05;12.90;86.87
70154;DHT22;57519;51.494;-2.626;2022-09-21T03:39:31;12.89;87.10
70154;DHT22;57519;51.494;-2.626;2022-09-21T03:41:57;12.89;87.02
70154;DHT22;57519;51.494;-2.626;2022-09-21T03:44:23;12.85;87.13
70154;DHT22;57519;51.494;-2.626;2022-09-21T03:46:51;12.85;87.22
70154;DHT22;57519;51.494;-2.626;2022-09-21T03:49:17;12.79;87.03
70154;DHT22;57519;51.494;-2.626;2022-09-21T03:51:42;12.71;87.17
70154;DHT22;57519;51.494;-2.626;2022-09-21T03:54:08;12.65;87.33
70154;DHT22;57519;51.494;-2.626;2022-09-21T03:56:34;12.59;87.53
70154;DHT22;57519;51.494;-2.626;2022-09-21T03:58:59;12.49;87.41
70154;DHT22;57519;51.494;-2.626;2022-09-21T04:01:25;12.44;87.56
70154;DHT22;57519;51.494;-2.626;2022-09-21T04:03:50;12.38;87.65
70154;DHT22;57519;51.494;-2.626;2022-09-21T04:06:16;12.32;87.80
70154;DHT22;57519;51.494;-2.626;2022-09-21T04:08:41;12.25;88.00
70154;DHT22;57519;51.494;-2.626;2022-09-21T04:11:11;12.18;87.86
70154;DHT22;57519;51.494;-2.626;2022-09-21T04:13:37;12.11;87.84
70154;DHT22;57519;51.494;-2.626;2022-09-21T04:16:02;12.10;88.92
70154;DHT22;57519;51.494;-2.626;2022-09-21T04:18:28;12.07;88.81
70154;DHT22;57519;51.494;-2.626;2022-09-21T04:20:53;12.04;88.76
70154;DHT22;57519;51.494;-2.626;2022-09-21T04:23:19;11.89;88.47
70154;DHT22;57519;51.494;-2.626;2022-09-21T04:25:47;11.86;88.66
70154;DHT22;57519;51.494;-2.626;2022-09-21T04:28:15;11.77;88.45
70154;DHT22;57519;51.494;-2.626;2022-09-21T04:30:40;11.70;88.69
70154;DHT22;57519;51.494;-2.626;2022-09-21T04:33:06;11.66;88.62
70154;DHT22;57519;51.494;-2.626;2022-09-21T04:35:31;11.58;88.60
70154;DHT22;57519;51.494;-2.626;2022-09-21T04:37:56;11.48;88.70
70154;DHT22;57519;51.494;-2.626;2022-09-21T04:40:22;11.45;88.95
70154;DHT22;57519;51.494;-2.626;2022-09-21T04:42:51;11.40;88.84
70154;DHT22;57519;51.494;-2.626;2022-09-21T04:45:18;11.43;89.08
70154;DHT22;57519;51.494;-2.626;2022-09-21T04:47:44;11.36;88.80
70154;DHT22;57519;51.494;-2.626;2022-09-21T04:50:10;11.25;88.87
70154;DHT22;57519;51.494;-2.626;2022-09-21T04:52:35;11.19;88.91
70154;DHT22;57519;51.494;-2.626;2022-09-21T04:55:01;11.12;88.94
70154;DHT22;57519;51.494;-2.626;2022-09-21T04:57:26;11.06;88.94
70154;DHT22;57519;51.494;-2.626;2022-09-21T04:59:52;11.06;89.00
70154;DHT22;57519;51.494;-2.626;2022-09-21T05:02:17;10.96;88.90
70154;DHT22;57519;51.494;-2.626;2022-09-21T05:04:43;10.90;88.95
70154;DHT22;57519;51.494;-2.626;2022-09-21T05:07:08;10.85;88.92
70154;DHT22;57519;51.494;-2.626;2022-09-21T05:09:34;10.87;88.90
70154;DHT22;57519;51.494;-2.626;2022-09-21T05:12:18;10.74;88.76
70154;DHT22;57519;51.494;-2.626;2022-09-21T05:14:43;10.69;88.83
70154;DHT22;57519;51.494;-2.626;2022-09-21T05:17:10;10.62;88.93
70154;DHT22;57519;51.494;-2.626;2022-09-21T05:19:35;10.62;89.23
70154;DHT22;57519;51.494;-2.626;2022-09-21T05:22:01;10.53;89.16
70154;DHT22;57519;51.494;-2.626;2022-09-21T05:24:26;10.53;89.26
70154;DHT22;57519;51.494;-2.626;2022-09-21T05:26:52;10.46;89.04
70154;DHT22;57519;51.494;-2.626;2022-09-21T05:29:17;10.48;89.15
70154;DHT22;57519;51.494;-2.626;2022-09-21T05:31:47;10.48;89.14
70154;DHT22;57519;51.494;-2.626;2022-09-21T05:39:59;10.49;89.14
70154;DHT22;57519;51.494;-2.626;2022-09-21T05:42:25;10.50;89.39
70154;DHT22;57519;51.494;-2.626;2022-09-21T05:44:51;10.56;89.29
70154;DHT22;57519;51.494;-2.626;2022-09-21T05:47:37;10.57;89.16
70154;DHT22;57519;51.494;-2.626;2022-09-21T05:58:20;10.74;89.32
70154;DHT22;57519;51.494;-2.626;2022-09-21T06:03:49;10.90;89.30
70154;DHT22;57519;51.494;-2.626;2022-09-21T06:06:24;11.03;89.28
70154;DHT22;57519;51.494;-2.626;2022-09-21T06:08:50;11.11;89.34
70154;DHT22;57519;51.494;-2.626;2022-09-21T06:11:15;11.19;89.06
70154;DHT22;57519;51.494;-2.626;2022-09-21T06:13:41;11.24;88.91
70154;DHT22;57519;51.494;-2.626;2022-09-21T06:16:06;11.24;88.75
70154;DHT22;57519;51.494;-2.626;2022-09-21T06:18:36;11.31;88.58
70154;DHT22;57519;51.494;-2.626;2022-09-21T06:21:03;11.29;88.59
70154;DHT22;57519;51.494;-2.626;2022-09-21T06:23:29;11.34;88.88
70154;DHT22;57519;51.494;-2.626;2022-09-21T06:25:54;11.38;88.90
70154;DHT22;57519;51.494;-2.626;2022-09-21T06:28:20;11.48;88.92
70154;DHT22;57519;51.494;-2.626;2022-09-21T06:30:52;11.58;88.86
70154;DHT22;57519;51.494;-2.626;2022-09-21T06:33:19;11.66;89.01
70154;DHT22;57519;51.494;-2.626;2022-09-21T06:35:58;11.76;88.99
70154;DHT22;57519;51.494;-2.626;2022-09-21T06:38:25;11.87;88.90
70154;DHT22;57519;51.494;-2.626;2022-09-21T06:40:51;11.98;88.93
70154;DHT22;57519;51.494;-2.626;2022-09-21T06:43:17;12.01;89.01
70154;DHT22;57519;51.494;-2.626;2022-09-21T06:45:43;12.14;88.84
70154;DHT22;57519;51.494;-2.626;2022-09-21T06:48:08;12.18;88.54
70154;DHT22;57519;51.494;-2.626;2022-09-21T06:50:34;12.25;88.51
70154;DHT22;57519;51.494;-2.626;2022-09-21T06:53:00;12.35;88.29
70154;DHT22;57519;51.494;-2.626;2022-09-21T06:55:25;12.48;88.16
70154;DHT22;57519;51.494;-2.626;2022-09-21T06:57:51;12.59;87.98
70154;DHT22;57519;51.494;-2.626;2022-09-21T07:00:17;12.69;87.58
70154;DHT22;57519;51.494;-2.626;2022-09-21T07:02:43;12.80;87.58
70154;DHT22;57519;51.494;-2.626;2022-09-21T07:05:09;12.85;87.50
70154;DHT22;57519;51.494;-2.626;2022-09-21T07:07:35;12.93;87.38
70154;DHT22;57519;51.494;-2.626;2022-09-21T07:10:00;13.03;87.13
70154;DHT22;57519;51.494;-2.626;2022-09-21T07:12:29;13.14;86.98
70154;DHT22;57519;51.494;-2.626;2022-09-21T07:15:02;13.26;86.69
70154;DHT22;57519;51.494;-2.626;2022-09-21T07:17:33;13.38;86.72
70154;DHT22;57519;51.494;-2.626;2022-09-21T07:19:59;13.48;86.80
70154;DHT22;57519;51.494;-2.626;2022-09-21T07:22:30;13.57;86.73
70154;DHT22;57519;51.494;-2.626;2022-09-21T07:24:56;13.62;86.63
70154;DHT22;57519;51.494;-2.626;2022-09-21T07:27:23;13.69;86.59
70154;DHT22;57519;51.494;-2.626;2022-09-21T07:29:48;13.74;86.52
70154;DHT22;57519;51.494;-2.626;2022-09-21T07:32:14;13.79;85.96
70154;DHT22;57519;51.494;-2.626;2022-09-21T07:34:39;13.86;85.90
70154;DHT22;57519;51.494;-2.626;2022-09-21T07:37:05;13.93;85.59
70154;DHT22;57519;51.494;-2.626;2022-09-21T07:39:30;14.06;85.26
70154;DHT22;57519;51.494;-2.626;2022-09-21T07:41:56;14.22;84.30
70154;DHT22;57519;51.494;-2.626;2022-09-21T07:44:23;14.30;83.63
70154;DHT22;57519;51.494;-2.626;2022-09-21T07:46:49;14.38;84.07
70154;DHT22;57519;51.494;-2.626;2022-09-21T07:49:14;14.59;83.36
70154;DHT22;57519;51.494;-2.626;2022-09-21T07:51:40;14.68;82.57
70154;DHT22;57519;51.494;-2.626;2022-09-21T07:54:05;14.80;82.32
70154;DHT22;57519;51.494;-2.626;2022-09-21T07:56:35;14.99;81.74
70154;DHT22;57519;51.494;-2.626;2022-09-21T07:59:02;15.10;81.38
70154;DHT22;57519;51.494;-2.626;2022-09-21T08:01:32;15.23;80.91
70154;DHT22;57519;51.494;-2.626;2022-09-21T08:03:58;15.35;80.51
70154;DHT22;57519;51.494;-2.626;2022-09-21T08:06:25;15.49;80.49
70154;DHT22;57519;51.494;-2.626;2022-09-21T08:08:51;15.56;80.35
70154;DHT22;57519;51.494;-2.626;2022-09-21T08:11:19;15.61;80.16
70154;DHT22;57519;51.494;-2.626;2022-09-21T08:13:47;15.64;79.91
70154;DHT22;57519;51.494;-2.626;2022-09-21T08:16:13;15.71;79.89
70154;DHT22;57519;51.494;-2.626;2022-09-21T08:18:40;15.77;79.33
70154;DHT22;57519;51.494;-2.626;2022-09-21T08:21:07;15.84;79.45
70154;DHT22;57519;51.494;-2.626;2022-09-21T08:23:34;15.95;78.15
70154;DHT22;57519;51.494;-2.626;2022-09-21T08:26:05;16.04;77.61
70154;DHT22;57519;51.494;-2.626;2022-09-21T08:28:32;16.26;77.36
70154;DHT22;57519;51.494;-2.626;2022-09-21T08:31:02;16.43;76.06
70154;DHT22;57519;51.494;-2.626;2022-09-21T08:33:28;16.49;76.15
70154;DHT22;57519;51.494;-2.626;2022-09-21T08:35:55;16.60;75.32
70154;DHT22;57519;51.494;-2.626;2022-09-21T08:38:21;16.70;74.42
70154;DHT22;57519;51.494;-2.626;2022-09-21T08:40:47;16.74;74.94
70154;DHT22;57519;51.494;-2.626;2022-09-21T08:43:17;16.76;74.34
70154;DHT22;57519;51.494;-2.626;2022-09-21T08:45:45;16.83;73.77
70154;DHT22;57519;51.494;-2.626;2022-09-21T08:48:21;16.94;73.87
70154;DHT22;57519;51.494;-2.626;2022-09-21T08:50:52;17.01;74.81
70154;DHT22;57519;51.494;-2.626;2022-09-21T08:53:25;17.01;74.01
70154;DHT22;57519;51.494;-2.626;2022-09-21T08:55:57;17.08;74.02
70154;DHT22;57519;51.494;-2.626;2022-09-21T08:58:25;17.12;74.26
70154;DHT22;57519;51.494;-2.626;2022-09-21T09:12:38;17.15;74.14
70154;DHT22;57519;51.494;-2.626;2022-09-21T09:18:10;17.34;74.12
70154;DHT22;57519;51.494;-2.626;2022-09-21T09:20:54;17.43;73.55
70154;DHT22;57519;51.494;-2.626;2022-09-21T09:25:55;17.50;72.12
70154;DHT22;57519;51.494;-2.626;2022-09-21T09:28:29;17.63;71.69
70154;DHT22;57519;51.494;-2.626;2022-09-21T09:31:02;17.59;72.02
70154;DHT22;57519;51.494;-2.626;2022-09-21T09:36:30;17.82;70.48
70154;DHT22;57519;51.494;-2.626;2022-09-21T09:39:00;17.93;70.55
70154;DHT22;57519;51.494;-2.626;2022-09-21T09:50:32;18.25;70.38
70154;DHT22;57519;51.494;-2.626;2022-09-21T09:53:09;18.38;70.10
70154;DHT22;57519;51.494;-2.626;2022-09-21T09:55:46;18.48;69.67
70154;DHT22;57519;51.494;-2.626;2022-09-21T09:58:34;18.58;68.67
70154;DHT22;57519;51.494;-2.626;2022-09-21T10:01:00;18.56;68.63
70154;DHT22;57519;51.494;-2.626;2022-09-21T10:03:26;18.42;68.31
70154;DHT22;57519;51.494;-2.626;2022-09-21T10:05:53;18.52;69.31
70154;DHT22;57519;51.494;-2.626;2022-09-21T10:11:10;18.83;68.24
70154;DHT22;57519;51.494;-2.626;2022-09-21T10:13:41;18.58;68.13
70154;DHT22;57519;51.494;-2.626;2022-09-21T10:16:33;18.48;68.75
70154;DHT22;57519;51.494;-2.626;2022-09-21T10:19:04;18.58;68.31
70154;DHT22;57519;51.494;-2.626;2022-09-21T10:24:20;18.61;68.27
70154;DHT22;57519;51.494;-2.626;2022-09-21T10:26:53;18.52;67.66
70154;DHT22;57519;51.494;-2.626;2022-09-21T10:37:27;18.27;65.36
70154;DHT22;57519;51.494;-2.626;2022-09-21T10:39:53;18.32;65.57
70154;DHT22;57519;51.494;-2.626;2022-09-21T10:42:19;18.17;65.22
70154;DHT22;57519;51.494;-2.626;2022-09-21T10:44:48;18.15;64.89
70154;DHT22;57519;51.494;-2.626;2022-09-21T10:47:40;17.93;65.09
70154;DHT22;57519;51.494;-2.626;2022-09-21T10:55:39;18.13;60.52
70154;DHT22;57519;51.494;-2.626;2022-09-21T10:58:10;18.01;59.99
70154;DHT22;57519;51.494;-2.626;2022-09-21T11:00:45;17.89;60.13
70154;DHT22;57519;51.494;-2.626;2022-09-21T11:03:48;17.79;59.89
70154;DHT22;57519;51.494;-2.626;2022-09-21T11:06:23;17.66;59.87
70154;DHT22;57519;51.494;-2.626;2022-09-21T11:09:05;17.76;59.69
70154;DHT22;57519;51.494;-2.626;2022-09-21T11:11:45;17.77;60.77
70154;DHT22;57519;51.494;-2.626;2022-09-21T11:16:45;17.82;61.11
70154;DHT22;57519;51.494;-2.626;2022-09-21T11:22:19;18.13;60.77
70154;DHT22;57519;51.494;-2.626;2022-09-21T11:24:51;18.28;58.42
70154;DHT22;57519;51.494;-2.626;2022-09-21T11:27:26;18.52;58.87
70154;DHT22;57519;51.494;-2.626;2022-09-21T11:30:16;18.68;57.61
70154;DHT22;57519;51.494;-2.626;2022-09-21T11:33:01;18.86;57.41
70154;DHT22;57519;51.494;-2.626;2022-09-21T11:35:32;18.83;56.55
70154;DHT22;57519;51.494;-2.626;2022-09-21T11:38:21;18.80;56.78
70154;DHT22;57519;51.494;-2.626;2022-09-21T11:41:03;18.80;57.66
70154;DHT22;57519;51.494;-2.626;2022-09-21T11:43:53;18.73;56.30
70154;DHT22;57519;51.494;-2.626;2022-09-21T11:46:31;18.61;55.58
70154;DHT22;57519;51.494;-2.626;2022-09-21T11:49:16;18.58;55.35
70154;DHT22;57519;51.494;-2.626;2022-09-21T11:55:17;19.10;53.65
70154;DHT22;57519;51.494;-2.626;2022-09-21T12:00:31;19.68;52.29
70154;DHT22;57519;51.494;-2.626;2022-09-21T12:03:20;19.74;57.80
70154;DHT22;57519;51.494;-2.626;2022-09-21T12:06:16;19.81;57.39
70154;DHT22;57519;51.494;-2.626;2022-09-21T12:11:36;20.08;57.85
70154;DHT22;57519;51.494;-2.626;2022-09-21T12:14:31;19.87;58.14
70154;DHT22;57519;51.494;-2.626;2022-09-21T12:19:46;19.81;58.07
70154;DHT22;57519;51.494;-2.626;2022-09-21T12:22:28;19.90;58.39
70154;DHT22;57519;51.494;-2.626;2022-09-21T12:25:17;19.97;56.37
70154;DHT22;57519;51.494;-2.626;2022-09-21T12:28:18;19.97;55.44
70154;DHT22;57519;51.494;-2.626;2022-09-21T12:30:49;19.83;56.65
70154;DHT22;57519;51.494;-2.626;2022-09-21T12:33:34;19.68;58.12
70154;DHT22;57519;51.494;-2.626;2022-09-21T12:36:06;19.72;57.22
70154;DHT22;57519;51.494;-2.626;2022-09-21T12:38:40;19.41;57.93
70154;DHT22;57519;51.494;-2.626;2022-09-21T12:41:30;19.18;57.15
70154;DHT22;57519;51.494;-2.626;2022-09-21T12:44:09;18.98;57.17
70154;DHT22;57519;51.494;-2.626;2022-09-21T12:46:44;19.13;55.68
70154;DHT22;57519;51.494;-2.626;2022-09-21T12:49:16;19.44;54.81
70154;DHT22;57519;51.494;-2.626;2022-09-21T12:51:55;19.47;53.86
70154;DHT22;57519;51.494;-2.626;2022-09-21T12:55:03;19.38;54.13
70154;DHT22;57519;51.494;-2.626;2022-09-21T12:57:43;19.21;53.05
70154;DHT22;57519;51.494;-2.626;2022-09-21T13:00:19;19.14;53.12
70154;DHT22;57519;51.494;-2.626;2022-09-21T13:08:30;19.44;52.89
70154;DHT22;57519;51.494;-2.626;2022-09-21T13:11:02;19.45;51.31
70154;DHT22;57519;51.494;-2.626;2022-09-21T13:13:36;19.51;51.56
70154;DHT22;57519;51.494;-2.626;2022-09-21T13:16:04;19.54;50.45
70154;DHT22;57519;51.494;-2.626;2022-09-21T13:18:39;19.61;50.12
70154;DHT22;57519;51.494;-2.626;2022-09-21T13:21:17;19.58;50.53
70154;DHT22;57519;51.494;-2.626;2022-09-21T13:23:43;19.45;50.92
70154;DHT22;57519;51.494;-2.626;2022-09-21T13:26:36;19.53;50.50
70154;DHT22;57519;51.494;-2.626;2022-09-21T13:39:47;19.64;50.13
70154;DHT22;57519;51.494;-2.626;2022-09-21T13:44:56;19.54;49.47
70154;DHT22;57519;51.494;-2.626;2022-09-21T13:47:30;19.48;50.71
70154;DHT22;57519;51.494;-2.626;2022-09-21T13:49:56;19.53;50.57
70154;DHT22;57519;51.494;-2.626;2022-09-21T13:52:46;19.86;50.01
70154;DHT22;57519;51.494;-2.626;2022-09-21T13:55:30;20.06;49.90
70154;DHT22;57519;51.494;-2.626;2022-09-21T13:57:58;19.97;49.89
70154;DHT22;57519;51.494;-2.626;2022-09-21T14:03:16;20.05;50.94
70154;DHT22;57519;51.494;-2.626;2022-09-21T14:05:47;20.09;50.21
70154;DHT22;57519;51.494;-2.626;2022-09-21T14:13:35;20.06;50.59
70154;DHT22;57519;51.494;-2.626;2022-09-21T14:24:44;20.06;50.98
70154;DHT22;57519;51.494;-2.626;2022-09-21T14:27:32;20.08;50.65
70154;DHT22;57519;51.494;-2.626;2022-09-21T14:30:17;19.93;49.98
70154;DHT22;57519;51.494;-2.626;2022-09-21T14:33:16;19.62;51.35
70154;DHT22;57519;51.494;-2.626;2022-09-21T14:35:44;19.74;51.64
70154;DHT22;57519;51.494;-2.626;2022-09-21T14:38:54;19.75;50.64
70154;DHT22;57519;51.494;-2.626;2022-09-21T14:41:29;19.95;50.82
70154;DHT22;57519;51.494;-2.626;2022-09-21T14:43:58;19.78;50.60
70154;DHT22;57519;51.494;-2.626;2022-09-21T14:46:35;19.90;51.62
70154;DHT22;57519;51.494;-2.626;2022-09-21T14:54:42;19.81;51.48
70154;DHT22;57519;51.494;-2.626;2022-09-21T15:02:46;19.96;49.98
70154;DHT22;57519;51.494;-2.626;2022-09-21T15:05:24;20.10;49.73
70154;DHT22;57519;51.494;-2.626;2022-09-21T15:13:48;20.12;49.59
70154;DHT22;57519;51.494;-2.626;2022-09-21T15:16:31;20.09;49.68
70154;DHT22;57519;51.494;-2.626;2022-09-21T15:21:50;19.87;50.00
70154;DHT22;57519;51.494;-2.626;2022-09-21T15:24:29;20.05;49.78
70154;DHT22;57519;51.494;-2.626;2022-09-21T15:27:07;20.16;49.46
70154;DHT22;57519;51.494;-2.626;2022-09-21T15:29:35;20.30;49.61
70154;DHT22;57519;51.494;-2.626;2022-09-21T15:32:01;20.48;48.98
70154;DHT22;57519;51.494;-2.626;2022-09-21T15:34:26;20.61;48.64
70154;DHT22;57519;51.494;-2.626;2022-09-21T15:36:52;20.43;49.11
70154;DHT22;57519;51.494;-2.626;2022-09-21T15:39:30;20.27;49.33
70154;DHT22;57519;51.494;-2.626;2022-09-21T15:44:40;20.22;49.54
70154;DHT22;57519;51.494;-2.626;2022-09-21T15:47:10;20.13;49.27
70154;DHT22;57519;51.494;-2.626;2022-09-21T15:49:36;20.19;48.36
70154;DHT22;57519;51.494;-2.626;2022-09-21T15:52:23;20.26;49.57
70154;DHT22;57519;51.494;-2.626;2022-09-21T15:54:57;20.10;48.92
70154;DHT22;57519;51.494;-2.626;2022-09-21T15:57:34;19.90;49.41
70154;DHT22;57519;51.494;-2.626;2022-09-21T16:00:05;19.90;49.87
70154;DHT22;57519;51.494;-2.626;2022-09-21T16:02:37;20.05;50.36
70154;DHT22;57519;51.494;-2.626;2022-09-21T16:05:06;19.92;49.56
70154;DHT22;57519;51.494;-2.626;2022-09-21T16:07:37;19.95;49.59
70154;DHT22;57519;51.494;-2.626;2022-09-21T16:13:02;20.14;50.16
70154;DHT22;57519;51.494;-2.626;2022-09-21T16:16:02;20.05;49.96
70154;DHT22;57519;51.494;-2.626;2022-09-21T16:21:11;19.64;51.22
70154;DHT22;57519;51.494;-2.626;2022-09-21T16:23:38;19.48;51.39
70154;DHT22;57519;51.494;-2.626;2022-09-21T16:26:04;19.39;51.61
70154;DHT22;57519;51.494;-2.626;2022-09-21T16:28:38;19.30;52.00
70154;DHT22;57519;51.494;-2.626;2022-09-21T16:31:27;19.23;53.13
70154;DHT22;57519;51.494;-2.626;2022-09-21T16:38:46;18.82;53.61
70154;DHT22;57519;51.494;-2.626;2022-09-21T16:41:12;18.88;52.94
70154;DHT22;57519;51.494;-2.626;2022-09-21T16:43:39;18.86;52.98
70154;DHT22;57519;51.494;-2.626;2022-09-21T16:46:11;18.89;54.01
70154;DHT22;57519;51.494;-2.626;2022-09-21T16:48:40;18.80;53.38
70154;DHT22;57519;51.494;-2.626;2022-09-21T16:51:11;18.75;53.52
70154;DHT22;57519;51.494;-2.626;2022-09-21T16:53:37;18.62;54.37
70154;DHT22;57519;51.494;-2.626;2022-09-21T16:56:02;18.45;54.68
70154;DHT22;57519;51.494;-2.626;2022-09-21T16:58:28;18.38;55.33
70154;DHT22;57519;51.494;-2.626;2022-09-21T17:00:53;18.25;56.69
70154;DHT22;57519;51.494;-2.626;2022-09-21T17:03:19;18.07;58.08
70154;DHT22;57519;51.494;-2.626;2022-09-21T17:05:45;17.91;58.76
70154;DHT22;57519;51.494;-2.626;2022-09-21T17:08:11;17.67;59.37
70154;DHT22;57519;51.494;-2.626;2022-09-21T17:10:41;17.53;60.56
70154;DHT22;57519;51.494;-2.626;2022-09-21T17:13:08;17.39;61.59
70154;DHT22;57519;51.494;-2.626;2022-09-21T17:15:35;17.27;61.97
70154;DHT22;57519;51.494;-2.626;2022-09-21T17:18:03;17.15;62.21
70154;DHT22;57519;51.494;-2.626;2022-09-21T17:20:34;17.04;63.33
70154;DHT22;57519;51.494;-2.626;2022-09-21T17:23:00;16.88;64.01
70154;DHT22;57519;51.494;-2.626;2022-09-21T17:25:32;16.73;64.96
70154;DHT22;57519;51.494;-2.626;2022-09-21T17:28:02;16.59;65.65
70154;DHT22;57519;51.494;-2.626;2022-09-21T17:30:28;16.46;66.20
70154;DHT22;57519;51.494;-2.626;2022-09-21T17:32:57;16.39;66.29
70154;DHT22;57519;51.494;-2.626;2022-09-21T17:35:31;16.29;66.38
70154;DHT22;57519;51.494;-2.626;2022-09-21T17:37:58;16.16;67.25
70154;DHT22;57519;51.494;-2.626;2022-09-21T17:40:24;16.05;67.96
70154;DHT22;57519;51.494;-2.626;2022-09-21T17:42:53;15.94;68.67
70154;DHT22;57519;51.494;-2.626;2022-09-21T17:45:36;15.78;69.12
70154;DHT22;57519;51.494;-2.626;2022-09-21T17:48:03;15.63;69.37
70154;DHT22;57519;51.494;-2.626;2022-09-21T17:50:29;15.50;69.96
70154;DHT22;57519;51.494;-2.626;2022-09-21T17:52:56;15.36;70.22
70154;DHT22;57519;51.494;-2.626;2022-09-21T17:55:49;15.25;70.74
70154;DHT22;57519;51.494;-2.626;2022-09-21T17:58:44;15.12;71.11
70154;DHT22;57519;51.494;-2.626;2022-09-21T18:03:38;14.91;71.93
70154;DHT22;57519;51.494;-2.626;2022-09-21T18:06:08;14.82;72.07
70154;DHT22;57519;51.494;-2.626;2022-09-21T18:08:35;14.78;72.39
70154;DHT22;57519;51.494;-2.626;2022-09-21T18:16:26;14.45;73.57
70154;DHT22;57519;51.494;-2.626;2022-09-21T18:21:27;14.33;74.03
70154;DHT22;57519;51.494;-2.626;2022-09-21T18:27:05;14.13;74.63
70154;DHT22;57519;51.494;-2.626;2022-09-21T18:29:32;14.05;74.87
70154;DHT22;57519;51.494;-2.626;2022-09-21T18:32:26;14.02;75.00
70154;DHT22;57519;51.494;-2.626;2022-09-21T18:37:59;13.95;75.65
70154;DHT22;57519;51.494;-2.626;2022-09-21T18:43:29;13.90;75.19
70154;DHT22;57519;51.494;-2.626;2022-09-21T18:46:04;13.86;75.74
70154;DHT22;57519;51.494;-2.626;2022-09-21T18:49:02;13.79;75.71
70154;DHT22;57519;51.494;-2.626;2022-09-21T18:51:52;13.72;75.83
70154;DHT22;57519;51.494;-2.626;2022-09-21T18:54:20;13.61;76.03
70154;DHT22;57519;51.494;-2.626;2022-09-21T18:56:46;13.58;76.60
70154;DHT22;57519;51.494;-2.626;2022-09-21T18:59:13;13.62;76.61